sensor_id;sensor_type;location;lat;lon;timestamp;temperature;humidity
29031;DHT22;16122;50.236;11.734;2023-07-28T00:02:25;18.80;66.50
29031;DHT22;16122;50.236;11.734;2023-07-28T00:04:51;18.80;66.60
29031;DHT22;16122;50.236;11.734;2023-07-28T00:07:18;18.80;66.60
29031;DHT22;16122;50.236;11.734;2023-07-28T00:09:44;18.80;66.70
29031;DHT22;16122;50.236;11.734;2023-07-28T00:12:09;18.80;66.60
29031;DHT22;16122;50.236;11.734;2023-07-28T00:14:35;18.80;66.80
29031;DHT22;16122;50.236;11.734;2023-07-28T00:17:01;18.80;66.50
29031;DHT22;16122;50.236;11.734;2023-07-28T00:19:27;18.80;66.50
29031;DHT22;16122;50.236;11.734;2023-07-28T00:21:53;18.80;66.50
29031;DHT22;16122;50.236;11.734;2023-07-28T00:24:18;18.80;66.40
29031;DHT22;16122;50.236;11.734;2023-07-28T00:26:44;18.80;66.40
29031;DHT22;16122;50.236;11.734;2023-07-28T00:29:10;18.80;66.40
29031;DHT22;16122;50.236;11.734;2023-07-28T00:31:37;18.80;66.30
29031;DHT22;16122;50.236;11.734;2023-07-28T00:34:03;18.80;66.40
29031;DHT22;16122;50.236;11.734;2023-07-28T00:36:32;18.80;66.30
29031;DHT22;16122;50.236;11.734;2023-07-28T00:38:58;18.80;66.50
29031;DHT22;16122;50.236;11.734;2023-07-28T00:41:24;18.80;66.50
29031;DHT22;16122;50.236;11.734;2023-07-28T00:43:50;18.70;66.30
29031;DHT22;16122;50.236;11.734;2023-07-28T00:46:16;18.80;66.20
29031;DHT22;16122;50.236;11.734;2023-07-28T00:48:43;18.80;66.30
29031;DHT22;16122;50.236;11.734;2023-07-28T00:51:09;18.80;66.40
29031;DHT22;16122;50.236;11.734;2023-07-28T00:53:35;18.80;66.40
29031;DHT22;16122;50.236;11.734;2023-07-28T00:56:02;18.80;66.30
29031;DHT22;16122;50.236;11.734;2023-07-28T00:58:28;18.80;66.20
29031;DHT22;16122;50.236;11.734;2023-07-28T01:00:54;18.80;66.20
29031;DHT22;16122;50.236;11.734;2023-07-28T01:03:20;18.80;66.20
29031;DHT22;16122;50.236;11.734;2023-07-28T01:08:56;18.80;66.20
29031;DHT22;16122;50.236;11.734;2023-07-28T01:11:23;18.80;66.20
29031;DHT22;16122;50.236;11.734;2023-07-28T01:13:49;18.80;66.20
29031;DHT22;16122;50.236;11.734;2023-07-28T01:16:15;18.80;66.30
29031;DHT22;16122;50.236;11.734;2023-07-28T01:18:40;18.80;66.20
29031;DHT22;16122;50.236;11.734;2023-07-28T01:21:09;18.80;66.00
29031;DHT22;16122;50.236;11.734;2023-07-28T01:24:08;18.80;66.20
29031;DHT22;16122;50.236;11.734;2023-07-28T01:26:37;18.80;66.30
29031;DHT22;16122;50.236;11.734;2023-07-28T01:29:04;18.80;66.30
29031;DHT22;16122;50.236;11.734;2023-07-28T01:31:30;18.80;66.20
29031;DHT22;16122;50.236;11.734;2023-07-28T01:33:56;18.80;66.00
29031;DHT22;16122;50.236;11.734;2023-07-28T01:36:22;18.80;66.20
29031;DHT22;16122;50.236;11.734;2023-07-28T01:38:48;18.80;66.20
29031;DHT22;16122;50.236;11.734;2023-07-28T01:41:15;18.80;66.20
29031;DHT22;16122;50.236;11.734;2023-07-28T01:43:40;18.80;66.10
29031;DHT22;16122;50.236;11.734;2023-07-28T01:46:07;18.80;66.10
29031;DHT22;16122;50.236;11.734;2023-07-28T01:48:33;18.80;66.00
29031;DHT22;16122;50.236;11.734;2023-07-28T01:50:59;18.80;66.10
29031;DHT22;16122;50.236;11.734;2023-07-28T01:53:25;18.70;65.90
29031;DHT22;16122;50.236;11.734;2023-07-28T01:55:51;18.70;65.90
29031;DHT22;16122;50.236;11.734;2023-07-28T01:58:17;18.70;65.90
29031;DHT22;16122;50.236;11.734;2023-07-28T02:00:42;18.70;65.90
29031;DHT22;16122;50.236;11.734;2023-07-28T02:03:08;18.70;65.80
29031;DHT22;16122;50.236;11.734;2023-07-28T02:05:34;18.70;65.90
29031;DHT22;16122;50.236;11.734;2023-07-28T02:08:00;18.70;65.80
29031;DHT22;16122;50.236;11.734;2023-07-28T02:10:27;18.70;65.80
29031;DHT22;16122;50.236;11.734;2023-07-28T02:12:53;18.70;65.90
29031;DHT22;16122;50.236;11.734;2023-07-28T02:15:19;18.70;65.80
29031;DHT22;16122;50.236;11.734;2023-07-28T02:17:45;18.70;66.00
29031;DHT22;16122;50.236;11.734;2023-07-28T02:20:11;18.70;65.80
29031;DHT22;16122;50.236;11.734;2023-07-28T02:22:39;18.70;65.70
29031;DHT22;16122;50.236;11.734;2023-07-28T02:25:05;18.70;65.80
29031;DHT22;16122;50.236;11.734;2023-07-28T02:27:31;18.70;65.80
29031;DHT22;16122;50.236;11.734;2023-07-28T02:29:57;18.70;65.90
29031;DHT22;16122;50.236;11.734;2023-07-28T02:32:23;18.70;65.80
29031;DHT22;16122;50.236;11.734;2023-07-28T02:34:49;18.70;65.80
29031;DHT22;16122;50.236;11.734;2023-07-28T02:37:15;18.70;65.90
29031;DHT22;16122;50.236;11.734;2023-07-28T02:39:41;18.70;65.70
29031;DHT22;16122;50.236;11.734;2023-07-28T02:42:07;18.70;65.80
29031;DHT22;16122;50.236;11.734;2023-07-28T02:44:33;18.70;65.70
29031;DHT22;16122;50.236;11.734;2023-07-28T02:46:59;18.70;65.60
29031;DHT22;16122;50.236;11.734;2023-07-28T02:49:25;18.70;65.80
29031;DHT22;16122;50.236;11.734;2023-07-28T02:51:51;18.70;65.80
29031;DHT22;16122;50.236;11.734;2023-07-28T02:54:17;18.70;65.70
29031;DHT22;16122;50.236;11.734;2023-07-28T02:56:42;18.70;65.60
29031;DHT22;16122;50.236;11.734;2023-07-28T02:59:11;18.70;65.90
29031;DHT22;16122;50.236;11.734;2023-07-28T03:01:37;18.70;65.70
29031;DHT22;16122;50.236;11.734;2023-07-28T03:04:03;18.70;65.60
29031;DHT22;16122;50.236;11.734;2023-07-28T03:06:40;18.70;65.60
29031;DHT22;16122;50.236;11.734;2023-07-28T03:09:06;18.70;65.80
29031;DHT22;16122;50.236;11.734;2023-07-28T03:11:45;18.70;65.70
29031;DHT22;16122;50.236;11.734;2023-07-28T03:14:10;18.70;65.70
29031;DHT22;16122;50.236;11.734;2023-07-28T03:16:39;18.70;65.70
29031;DHT22;16122;50.236;11.734;2023-07-28T03:19:05;18.70;65.80
29031;DHT22;16122;50.236;11.734;2023-07-28T03:21:31;18.70;65.80
29031;DHT22;16122;50.236;11.734;2023-07-28T03:23:57;18.70;65.80
29031;DHT22;16122;50.236;11.734;2023-07-28T03:26:23;18.70;65.80
29031;DHT22;16122;50.236;11.734;2023-07-28T03:28:48;18.70;65.80
29031;DHT22;16122;50.236;11.734;2023-07-28T03:31:14;18.70;65.60
29031;DHT22;16122;50.236;11.734;2023-07-28T03:33:40;18.70;65.90
29031;DHT22;16122;50.236;11.734;2023-07-28T03:36:06;18.70;66.00
29031;DHT22;16122;50.236;11.734;2023-07-28T03:38:33;18.70;65.80
29031;DHT22;16122;50.236;11.734;2023-07-28T03:40:59;18.70;65.80
29031;DHT22;16122;50.236;11.734;2023-07-28T03:43:25;18.70;65.80
29031;DHT22;16122;50.236;11.734;2023-07-28T03:45:51;18.70;65.80
29031;DHT22;16122;50.236;11.734;2023-07-28T03:48:17;18.70;65.70
29031;DHT22;16122;50.236;11.734;2023-07-28T03:50:43;18.70;65.80
29031;DHT22;16122;50.236;11.734;2023-07-28T03:53:09;18.70;65.90
29031;DHT22;16122;50.236;11.734;2023-07-28T03:55:35;18.70;65.80
29031;DHT22;16122;50.236;11.734;2023-07-28T03:58:01;18.70;65.80
29031;DHT22;16122;50.236;11.734;2023-07-28T04:00:26;18.70;65.80
29031;DHT22;16122;50.236;11.734;2023-07-28T04:02:52;18.70;65.80
29031;DHT22;16122;50.236;11.734;2023-07-28T04:05:18;18.70;65.80
29031;DHT22;16122;50.236;11.734;2023-07-28T04:07:44;18.70;65.80
29031;DHT22;16122;50.236;11.734;2023-07-28T04:10:10;18.70;65.80
29031;DHT22;16122;50.236;11.734;2023-07-28T04:12:36;18.70;65.70
29031;DHT22;16122;50.236;11.734;2023-07-28T04:15:02;18.70;65.90
29031;DHT22;16122;50.236;11.734;2023-07-28T04:17:28;18.70;66.10
29031;DHT22;16122;50.236;11.734;2023-07-28T04:19:54;18.70;66.10
29031;DHT22;16122;50.236;11.734;2023-07-28T04:22:20;18.70;65.90
29031;DHT22;16122;50.236;11.734;2023-07-28T04:24:48;18.80;66.30
29031;DHT22;16122;50.236;11.734;2023-07-28T04:27:14;18.70;66.50
29031;DHT22;16122;50.236;11.734;2023-07-28T04:29:41;18.70;66.60
29031;DHT22;16122;50.236;11.734;2023-07-28T04:32:09;18.70;66.80
29031;DHT22;16122;50.236;11.734;2023-07-28T04:34:36;18.70;67.40
29031;DHT22;16122;50.236;11.734;2023-07-28T04:37:13;18.70;67.50
29031;DHT22;16122;50.236;11.734;2023-07-28T04:39:50;18.70;68.00
29031;DHT22;16122;50.236;11.734;2023-07-28T04:42:16;18.70;67.80
29031;DHT22;16122;50.236;11.734;2023-07-28T04:44:45;18.70;68.00
29031;DHT22;16122;50.236;11.734;2023-07-28T04:47:12;18.70;67.90
29031;DHT22;16122;50.236;11.734;2023-07-28T04:49:38;18.70;68.90
29031;DHT22;16122;50.236;11.734;2023-07-28T04:52:07;18.70;68.30
29031;DHT22;16122;50.236;11.734;2023-07-28T04:54:33;18.70;68.90
29031;DHT22;16122;50.236;11.734;2023-07-28T04:56:59;18.70;69.10
29031;DHT22;16122;50.236;11.734;2023-07-28T04:59:31;18.70;69.50
29031;DHT22;16122;50.236;11.734;2023-07-28T05:01:57;18.70;69.80
29031;DHT22;16122;50.236;11.734;2023-07-28T05:04:23;18.70;69.90
29031;DHT22;16122;50.236;11.734;2023-07-28T05:06:49;18.70;69.80
29031;DHT22;16122;50.236;11.734;2023-07-28T05:09:15;18.70;69.40
29031;DHT22;16122;50.236;11.734;2023-07-28T05:11:41;18.70;68.60
29031;DHT22;16122;50.236;11.734;2023-07-28T05:14:07;18.70;69.30
29031;DHT22;16122;50.236;11.734;2023-07-28T05:16:34;18.70;69.80
29031;DHT22;16122;50.236;11.734;2023-07-28T05:19:05;18.70;69.30
29031;DHT22;16122;50.236;11.734;2023-07-28T05:21:50;18.70;69.20
29031;DHT22;16122;50.236;11.734;2023-07-28T05:24:20;18.70;69.10
29031;DHT22;16122;50.236;11.734;2023-07-28T05:26:45;18.70;69.50
29031;DHT22;16122;50.236;11.734;2023-07-28T05:29:12;18.80;69.50
29031;DHT22;16122;50.236;11.734;2023-07-28T05:31:38;18.80;69.50
29031;DHT22;16122;50.236;11.734;2023-07-28T05:34:12;18.80;69.70
29031;DHT22;16122;50.236;11.734;2023-07-28T05:36:38;18.80;69.20
29031;DHT22;16122;50.236;11.734;2023-07-28T05:39:04;18.80;69.10
29031;DHT22;16122;50.236;11.734;2023-07-28T05:41:37;18.80;69.40
29031;DHT22;16122;50.236;11.734;2023-07-28T05:44:04;18.80;69.00
29031;DHT22;16122;50.236;11.734;2023-07-28T05:46:30;18.80;69.10
29031;DHT22;16122;50.236;11.734;2023-07-28T05:48:57;18.80;69.50
29031;DHT22;16122;50.236;11.734;2023-07-28T05:51:23;18.80;69.10
29031;DHT22;16122;50.236;11.734;2023-07-28T05:53:50;18.80;69.10
29031;DHT22;16122;50.236;11.734;2023-07-28T05:56:18;18.80;69.20
29031;DHT22;16122;50.236;11.734;2023-07-28T05:58:48;18.80;69.00
29031;DHT22;16122;50.236;11.734;2023-07-28T06:01:14;18.80;69.70
29031;DHT22;16122;50.236;11.734;2023-07-28T06:03:58;18.80;69.80
29031;DHT22;16122;50.236;11.734;2023-07-28T06:06:27;18.80;68.90
29031;DHT22;16122;50.236;11.734;2023-07-28T06:08:53;18.80;69.40
29031;DHT22;16122;50.236;11.734;2023-07-28T06:11:20;18.80;69.70
29031;DHT22;16122;50.236;11.734;2023-07-28T06:13:47;18.80;69.20
29031;DHT22;16122;50.236;11.734;2023-07-28T06:16:14;18.80;69.40
29031;DHT22;16122;50.236;11.734;2023-07-28T06:18:40;18.80;69.40
29031;DHT22;16122;50.236;11.734;2023-07-28T06:21:11;18.80;69.00
29031;DHT22;16122;50.236;11.734;2023-07-28T06:23:37;18.80;69.80
29031;DHT22;16122;50.236;11.734;2023-07-28T06:26:03;18.80;69.40
29031;DHT22;16122;50.236;11.734;2023-07-28T06:28:29;18.80;69.70
29031;DHT22;16122;50.236;11.734;2023-07-28T06:30:56;18.80;69.10
29031;DHT22;16122;50.236;11.734;2023-07-28T06:33:28;18.80;68.70
29031;DHT22;16122;50.236;11.734;2023-07-28T06:35:54;18.80;68.40
29031;DHT22;16122;50.236;11.734;2023-07-28T06:38:20;18.80;68.20
29031;DHT22;16122;50.236;11.734;2023-07-28T06:40:46;18.80;68.00
29031;DHT22;16122;50.236;11.734;2023-07-28T06:43:12;18.80;67.90
29031;DHT22;16122;50.236;11.734;2023-07-28T06:45:38;18.80;67.90
29031;DHT22;16122;50.236;11.734;2023-07-28T06:48:04;18.80;67.80
29031;DHT22;16122;50.236;11.734;2023-07-28T06:50:30;18.80;67.80
29031;DHT22;16122;50.236;11.734;2023-07-28T06:52:58;18.80;67.70
29031;DHT22;16122;50.236;11.734;2023-07-28T06:55:25;18.80;67.60
29031;DHT22;16122;50.236;11.734;2023-07-28T06:57:51;18.80;67.60
29031;DHT22;16122;50.236;11.734;2023-07-28T07:00:18;18.80;67.60
29031;DHT22;16122;50.236;11.734;2023-07-28T07:02:44;18.80;67.50
29031;DHT22;16122;50.236;11.734;2023-07-28T07:05:10;18.80;67.50
29031;DHT22;16122;50.236;11.734;2023-07-28T07:07:38;18.80;67.40
29031;DHT22;16122;50.236;11.734;2023-07-28T07:10:04;18.80;67.40
29031;DHT22;16122;50.236;11.734;2023-07-28T07:12:30;18.80;67.40
29031;DHT22;16122;50.236;11.734;2023-07-28T07:14:57;18.80;67.30
29031;DHT22;16122;50.236;11.734;2023-07-28T07:17:23;18.80;67.30
29031;DHT22;16122;50.236;11.734;2023-07-28T07:19:49;18.80;67.30
29031;DHT22;16122;50.236;11.734;2023-07-28T07:22:14;18.80;67.30
29031;DHT22;16122;50.236;11.734;2023-07-28T07:24:41;18.80;67.20
29031;DHT22;16122;50.236;11.734;2023-07-28T07:27:07;18.80;67.30
29031;DHT22;16122;50.236;11.734;2023-07-28T07:29:38;18.80;67.20
29031;DHT22;16122;50.236;11.734;2023-07-28T07:32:05;18.80;67.30
29031;DHT22;16122;50.236;11.734;2023-07-28T07:34:32;18.80;67.20
29031;DHT22;16122;50.236;11.734;2023-07-28T07:36:58;18.80;67.30
29031;DHT22;16122;50.236;11.734;2023-07-28T07:39:24;18.80;67.20
29031;DHT22;16122;50.236;11.734;2023-07-28T07:41:50;18.80;67.30
29031;DHT22;16122;50.236;11.734;2023-07-28T07:44:16;18.80;67.10
29031;DHT22;16122;50.236;11.734;2023-07-28T07:46:42;18.80;67.00
29031;DHT22;16122;50.236;11.734;2023-07-28T07:49:08;18.80;67.10
29031;DHT22;16122;50.236;11.734;2023-07-28T07:51:34;18.80;67.10
29031;DHT22;16122;50.236;11.734;2023-07-28T07:54:00;18.80;67.00
29031;DHT22;16122;50.236;11.734;2023-07-28T07:56:29;18.80;67.00
29031;DHT22;16122;50.236;11.734;2023-07-28T07:58:55;18.80;67.00
29031;DHT22;16122;50.236;11.734;2023-07-28T08:01:21;18.80;67.00
29031;DHT22;16122;50.236;11.734;2023-07-28T08:03:47;18.80;67.00
29031;DHT22;16122;50.236;11.734;2023-07-28T08:06:13;18.80;66.90
29031;DHT22;16122;50.236;11.734;2023-07-28T08:08:39;18.80;66.90
29031;DHT22;16122;50.236;11.734;2023-07-28T08:11:05;18.80;66.90
29031;DHT22;16122;50.236;11.734;2023-07-28T08:13:31;18.80;67.00
29031;DHT22;16122;50.236;11.734;2023-07-28T08:15:57;18.80;66.90
29031;DHT22;16122;50.236;11.734;2023-07-28T08:18:23;18.80;66.90
29031;DHT22;16122;50.236;11.734;2023-07-28T08:20:49;18.80;66.90
29031;DHT22;16122;50.236;11.734;2023-07-28T08:23:15;18.80;66.90
29031;DHT22;16122;50.236;11.734;2023-07-28T08:25:40;18.80;66.80
29031;DHT22;16122;50.236;11.734;2023-07-28T08:28:06;18.80;66.80
29031;DHT22;16122;50.236;11.734;2023-07-28T08:30:32;18.80;66.80
29031;DHT22;16122;50.236;11.734;2023-07-28T08:32:59;18.80;66.90
29031;DHT22;16122;50.236;11.734;2023-07-28T08:35:25;18.80;66.90
29031;DHT22;16122;50.236;11.734;2023-07-28T08:37:51;18.80;66.90
29031;DHT22;16122;50.236;11.734;2023-07-28T08:40:17;18.80;66.80
29031;DHT22;16122;50.236;11.734;2023-07-28T08:42:44;18.80;66.80
29031;DHT22;16122;50.236;11.734;2023-07-28T08:45:10;18.80;66.80
29031;DHT22;16122;50.236;11.734;2023-07-28T08:47:37;18.80;66.70
29031;DHT22;16122;50.236;11.734;2023-07-28T08:50:04;18.80;66.80
29031;DHT22;16122;50.236;11.734;2023-07-28T08:52:31;18.80;66.80
29031;DHT22;16122;50.236;11.734;2023-07-28T08:54:58;18.80;66.80
29031;DHT22;16122;50.236;11.734;2023-07-28T08:57:23;18.80;66.80
29031;DHT22;16122;50.236;11.734;2023-07-28T08:59:49;18.80;66.90
29031;DHT22;16122;50.236;11.734;2023-07-28T09:02:17;18.80;66.70
29031;DHT22;16122;50.236;11.734;2023-07-28T09:04:45;18.80;66.80
29031;DHT22;16122;50.236;11.734;2023-07-28T09:07:11;18.80;66.90
29031;DHT22;16122;50.236;11.734;2023-07-28T09:09:37;18.80;67.50
29031;DHT22;16122;50.236;11.734;2023-07-28T09:12:03;18.80;68.00
29031;DHT22;16122;50.236;11.734;2023-07-28T09:14:30;18.80;68.40
29031;DHT22;16122;50.236;11.734;2023-07-28T09:17:09;18.80;68.90
29031;DHT22;16122;50.236;11.734;2023-07-28T09:19:58;18.80;69.10
29031;DHT22;16122;50.236;11.734;2023-07-28T09:22:24;18.80;69.70
29031;DHT22;16122;50.236;11.734;2023-07-28T09:24:50;18.80;69.90
29031;DHT22;16122;50.236;11.734;2023-07-28T09:27:26;18.80;69.90
29031;DHT22;16122;50.236;11.734;2023-07-28T09:29:55;18.80;70.40
29031;DHT22;16122;50.236;11.734;2023-07-28T09:32:31;18.90;70.80
29031;DHT22;16122;50.236;11.734;2023-07-28T09:35:12;18.90;70.90
29031;DHT22;16122;50.236;11.734;2023-07-28T09:37:41;18.80;70.70
29031;DHT22;16122;50.236;11.734;2023-07-28T09:40:16;18.80;70.80
29031;DHT22;16122;50.236;11.734;2023-07-28T09:42:44;18.90;70.70
29031;DHT22;16122;50.236;11.734;2023-07-28T09:45:18;18.90;71.00
29031;DHT22;16122;50.236;11.734;2023-07-28T09:47:48;18.90;70.70
29031;DHT22;16122;50.236;11.734;2023-07-28T09:50:18;18.90;71.00
29031;DHT22;16122;50.236;11.734;2023-07-28T09:52:52;18.90;71.10
29031;DHT22;16122;50.236;11.734;2023-07-28T09:55:20;18.90;71.10
29031;DHT22;16122;50.236;11.734;2023-07-28T09:57:50;18.90;71.10
29031;DHT22;16122;50.236;11.734;2023-07-28T10:00:17;18.90;71.10
29031;DHT22;16122;50.236;11.734;2023-07-28T10:02:45;18.90;71.10
29031;DHT22;16122;50.236;11.734;2023-07-28T10:05:11;18.90;71.20
29031;DHT22;16122;50.236;11.734;2023-07-28T10:07:39;18.90;71.30
29031;DHT22;16122;50.236;11.734;2023-07-28T10:10:07;18.90;71.20
29031;DHT22;16122;50.236;11.734;2023-07-28T10:12:49;18.90;71.50
29031;DHT22;16122;50.236;11.734;2023-07-28T10:15:20;18.90;71.30
29031;DHT22;16122;50.236;11.734;2023-07-28T10:17:55;18.90;71.50
29031;DHT22;16122;50.236;11.734;2023-07-28T10:20:36;18.90;71.40
29031;DHT22;16122;50.236;11.734;2023-07-28T10:23:17;18.90;71.50
29031;DHT22;16122;50.236;11.734;2023-07-28T10:25:44;18.90;71.60
29031;DHT22;16122;50.236;11.734;2023-07-28T10:28:27;18.90;71.50
29031;DHT22;16122;50.236;11.734;2023-07-28T10:30:55;18.90;71.50
29031;DHT22;16122;50.236;11.734;2023-07-28T10:33:34;18.90;71.70
29031;DHT22;16122;50.236;11.734;2023-07-28T10:36:20;19.00;71.90
29031;DHT22;16122;50.236;11.734;2023-07-28T10:39:15;19.00;71.70
29031;DHT22;16122;50.236;11.734;2023-07-28T10:42:07;18.90;71.40
29031;DHT22;16122;50.236;11.734;2023-07-28T10:44:34;19.00;71.70
29031;DHT22;16122;50.236;11.734;2023-07-28T10:47:01;19.00;71.70
29031;DHT22;16122;50.236;11.734;2023-07-28T10:49:28;19.00;71.80
29031;DHT22;16122;50.236;11.734;2023-07-28T10:51:54;19.00;71.80
29031;DHT22;16122;50.236;11.734;2023-07-28T10:54:20;19.00;71.80
29031;DHT22;16122;50.236;11.734;2023-07-28T10:56:47;19.00;71.80
29031;DHT22;16122;50.236;11.734;2023-07-28T10:59:14;19.00;71.70
29031;DHT22;16122;50.236;11.734;2023-07-28T11:01:41;19.00;71.80
29031;DHT22;16122;50.236;11.734;2023-07-28T11:04:14;19.00;71.80
29031;DHT22;16122;50.236;11.734;2023-07-28T11:06:43;19.00;71.80
29031;DHT22;16122;50.236;11.734;2023-07-28T11:09:10;19.00;71.80
29031;DHT22;16122;50.236;11.734;2023-07-28T11:11:39;19.00;71.90
29031;DHT22;16122;50.236;11.734;2023-07-28T11:14:07;19.00;71.80
29031;DHT22;16122;50.236;11.734;2023-07-28T11:16:36;19.00;72.00
29031;DHT22;16122;50.236;11.734;2023-07-28T11:19:03;19.00;71.90
29031;DHT22;16122;50.236;11.734;2023-07-28T11:21:39;19.00;71.80
29031;DHT22;16122;50.236;11.734;2023-07-28T11:24:06;19.00;71.90
29031;DHT22;16122;50.236;11.734;2023-07-28T11:26:35;19.00;71.90
29031;DHT22;16122;50.236;11.734;2023-07-28T11:29:02;19.00;71.80
29031;DHT22;16122;50.236;11.734;2023-07-28T11:31:28;19.00;71.60
29031;DHT22;16122;50.236;11.734;2023-07-28T11:33:54;19.00;72.00
29031;DHT22;16122;50.236;11.734;2023-07-28T11:38:51;19.00;72.20
29031;DHT22;16122;50.236;11.734;2023-07-28T11:41:17;19.00;72.30
29031;DHT22;16122;50.236;11.734;2023-07-28T11:43:44;19.00;72.10
29031;DHT22;16122;50.236;11.734;2023-07-28T11:46:33;19.00;72.30
29031;DHT22;16122;50.236;11.734;2023-07-28T11:49:15;19.00;72.30
29031;DHT22;16122;50.236;11.734;2023-07-28T11:51:49;19.00;72.40
29031;DHT22;16122;50.236;11.734;2023-07-28T11:54:17;19.10;72.30
29031;DHT22;16122;50.236;11.734;2023-07-28T11:56:48;19.10;72.40
29031;DHT22;16122;50.236;11.734;2023-07-28T11:59:19;19.10;72.90
29031;DHT22;16122;50.236;11.734;2023-07-28T12:04:25;19.10;72.70
29031;DHT22;16122;50.236;11.734;2023-07-28T12:12:23;19.10;73.00
29031;DHT22;16122;50.236;11.734;2023-07-28T12:14:50;19.10;73.10
29031;DHT22;16122;50.236;11.734;2023-07-28T12:17:23;19.10;73.00
29031;DHT22;16122;50.236;11.734;2023-07-28T12:20:05;19.10;73.20
29031;DHT22;16122;50.236;11.734;2023-07-28T12:22:43;19.10;73.30
29031;DHT22;16122;50.236;11.734;2023-07-28T12:25:09;19.10;73.00
29031;DHT22;16122;50.236;11.734;2023-07-28T12:27:36;19.20;73.50
29031;DHT22;16122;50.236;11.734;2023-07-28T12:30:03;19.10;73.20
29031;DHT22;16122;50.236;11.734;2023-07-28T12:32:29;19.20;72.80
29031;DHT22;16122;50.236;11.734;2023-07-28T12:34:55;19.20;73.00
29031;DHT22;16122;50.236;11.734;2023-07-28T12:37:21;19.20;72.80
29031;DHT22;16122;50.236;11.734;2023-07-28T12:39:48;19.20;72.80
29031;DHT22;16122;50.236;11.734;2023-07-28T12:42:14;19.20;72.70
29031;DHT22;16122;50.236;11.734;2023-07-28T12:44:41;19.20;72.80
29031;DHT22;16122;50.236;11.734;2023-07-28T12:47:08;19.20;72.50
29031;DHT22;16122;50.236;11.734;2023-07-28T12:49:34;19.20;72.40
29031;DHT22;16122;50.236;11.734;2023-07-28T12:52:01;19.20;72.40
29031;DHT22;16122;50.236;11.734;2023-07-28T12:54:28;19.20;72.50
29031;DHT22;16122;50.236;11.734;2023-07-28T12:56:54;19.10;72.40
29031;DHT22;16122;50.236;11.734;2023-07-28T12:59:20;19.20;72.50
29031;DHT22;16122;50.236;11.734;2023-07-28T13:01:46;19.20;72.40
29031;DHT22;16122;50.236;11.734;2023-07-28T13:04:12;19.20;72.30
29031;DHT22;16122;50.236;11.734;2023-07-28T13:06:38;19.20;72.30
29031;DHT22;16122;50.236;11.734;2023-07-28T13:09:07;19.20;71.90
29031;DHT22;16122;50.236;11.734;2023-07-28T13:11:36;19.20;72.00
29031;DHT22;16122;50.236;11.734;2023-07-28T13:14:02;19.20;72.00
29031;DHT22;16122;50.236;11.734;2023-07-28T13:16:28;19.20;72.00
29031;DHT22;16122;50.236;11.734;2023-07-28T13:18:54;19.20;72.10
29031;DHT22;16122;50.236;11.734;2023-07-28T13:21:20;19.20;72.00
29031;DHT22;16122;50.236;11.734;2023-07-28T13:23:46;19.20;72.00
29031;DHT22;16122;50.236;11.734;2023-07-28T13:26:12;19.20;71.90
29031;DHT22;16122;50.236;11.734;2023-07-28T13:28:38;19.20;71.70
29031;DHT22;16122;50.236;11.734;2023-07-28T13:31:08;19.20;72.00
29031;DHT22;16122;50.236;11.734;2023-07-28T13:33:34;19.20;71.90
29031;DHT22;16122;50.236;11.734;2023-07-28T13:36:00;19.20;71.70
29031;DHT22;16122;50.236;11.734;2023-07-28T13:38:29;19.20;71.90
29031;DHT22;16122;50.236;11.734;2023-07-28T13:40:55;19.20;71.60
29031;DHT22;16122;50.236;11.734;2023-07-28T13:43:21;19.20;71.50
29031;DHT22;16122;50.236;11.734;2023-07-28T13:45:46;19.20;71.60
29031;DHT22;16122;50.236;11.734;2023-07-28T13:48:13;19.20;71.50
29031;DHT22;16122;50.236;11.734;2023-07-28T13:50:39;19.20;71.50
29031;DHT22;16122;50.236;11.734;2023-07-28T13:53:04;19.20;71.50
29031;DHT22;16122;50.236;11.734;2023-07-28T13:55:30;19.20;71.60
29031;DHT22;16122;50.236;11.734;2023-07-28T13:57:56;19.20;71.40
29031;DHT22;16122;50.236;11.734;2023-07-28T14:00:23;19.20;71.30
29031;DHT22;16122;50.236;11.734;2023-07-28T14:02:48;19.20;71.10
29031;DHT22;16122;50.236;11.734;2023-07-28T14:05:14;19.20;71.40
29031;DHT22;16122;50.236;11.734;2023-07-28T14:07:40;19.20;71.40
29031;DHT22;16122;50.236;11.734;2023-07-28T14:10:06;19.20;71.40
29031;DHT22;16122;50.236;11.734;2023-07-28T14:12:32;19.20;71.30
29031;DHT22;16122;50.236;11.734;2023-07-28T14:14:57;19.20;71.20
29031;DHT22;16122;50.236;11.734;2023-07-28T14:17:23;19.20;71.10
29031;DHT22;16122;50.236;11.734;2023-07-28T14:19:49;19.20;71.10
29031;DHT22;16122;50.236;11.734;2023-07-28T14:22:15;19.30;71.30
29031;DHT22;16122;50.236;11.734;2023-07-28T14:24:41;19.30;71.20
29031;DHT22;16122;50.236;11.734;2023-07-28T14:27:07;19.20;71.20
29031;DHT22;16122;50.236;11.734;2023-07-28T14:29:32;19.20;71.10
29031;DHT22;16122;50.236;11.734;2023-07-28T14:31:58;19.30;71.40
29031;DHT22;16122;50.236;11.734;2023-07-28T14:34:24;19.30;71.20
29031;DHT22;16122;50.236;11.734;2023-07-28T14:36:50;19.30;71.40
29031;DHT22;16122;50.236;11.734;2023-07-28T14:39:15;19.30;71.30
29031;DHT22;16122;50.236;11.734;2023-07-28T14:41:42;19.30;71.30
29031;DHT22;16122;50.236;11.734;2023-07-28T14:44:07;19.30;71.40
29031;DHT22;16122;50.236;11.734;2023-07-28T14:46:33;19.30;70.90
29031;DHT22;16122;50.236;11.734;2023-07-28T14:48:59;19.30;71.10
29031;DHT22;16122;50.236;11.734;2023-07-28T14:51:25;19.30;72.00
29031;DHT22;16122;50.236;11.734;2023-07-28T14:53:51;19.30;71.10
29031;DHT22;16122;50.236;11.734;2023-07-28T14:56:17;19.30;70.80
29031;DHT22;16122;50.236;11.734;2023-07-28T14:58:43;19.30;71.20
29031;DHT22;16122;50.236;11.734;2023-07-28T15:01:10;19.30;71.00
29031;DHT22;16122;50.236;11.734;2023-07-28T15:03:36;19.30;71.10
29031;DHT22;16122;50.236;11.734;2023-07-28T15:06:03;19.30;70.90
29031;DHT22;16122;50.236;11.734;2023-07-28T15:08:29;19.30;71.30
29031;DHT22;16122;50.236;11.734;2023-07-28T15:10:58;19.30;71.20
29031;DHT22;16122;50.236;11.734;2023-07-28T15:13:24;19.30;71.00
29031;DHT22;16122;50.236;11.734;2023-07-28T15:15:50;19.30;70.80
29031;DHT22;16122;50.236;11.734;2023-07-28T15:18:16;19.30;71.00
29031;DHT22;16122;50.236;11.734;2023-07-28T15:20:43;19.30;70.70
29031;DHT22;16122;50.236;11.734;2023-07-28T15:23:09;19.30;70.60
29031;DHT22;16122;50.236;11.734;2023-07-28T15:25:35;19.30;70.50
29031;DHT22;16122;50.236;11.734;2023-07-28T15:28:03;19.30;70.90
29031;DHT22;16122;50.236;11.734;2023-07-28T15:30:29;19.30;70.90
29031;DHT22;16122;50.236;11.734;2023-07-28T15:32:55;19.30;70.80